sensor_id;sensor_type;location;lat;lon;timestamp;temperature;humidity
58153;DHT22;43967;51.634;5.566;2024-03-08T00:05:07;17.90;53.30
58153;DHT22;43967;51.634;5.566;2024-03-08T00:10:28;17.90;54.00
58153;DHT22;43967;51.634;5.566;2024-03-08T00:15:51;17.90;53.30
58153;DHT22;43967;51.634;5.566;2024-03-08T00:21:14;17.90;53.30
58153;DHT22;43967;51.634;5.566;2024-03-08T00:26:36;17.90;53.30
58153;DHT22;43967;51.634;5.566;2024-03-08T00:31:57;17.90;53.20
58153;DHT22;43967;51.634;5.566;2024-03-08T00:37:18;17.80;53.20
58153;DHT22;43967;51.634;5.566;2024-03-08T00:42:40;17.90;53.20
58153;DHT22;43967;51.634;5.566;2024-03-08T00:48:01;17.80;53.10
58153;DHT22;43967;51.634;5.566;2024-03-08T00:53:22;17.80;53.10
58153;DHT22;43967;51.634;5.566;2024-03-08T00:58:47;17.80;53.10
58153;DHT22;43967;51.634;5.566;2024-03-08T01:04:09;17.80;53.10
58153;DHT22;43967;51.634;5.566;2024-03-08T01:09:30;17.80;53.10
58153;DHT22;43967;51.634;5.566;2024-03-08T01:14:51;17.80;53.10
58153;DHT22;43967;51.634;5.566;2024-03-08T01:20:12;17.80;53.00
58153;DHT22;43967;51.634;5.566;2024-03-08T01:25:34;17.70;53.00
58153;DHT22;43967;51.634;5.566;2024-03-08T01:30:55;17.80;53.00
58153;DHT22;43967;51.634;5.566;2024-03-08T01:36:16;17.80;52.90
58153;DHT22;43967;51.634;5.566;2024-03-08T01:41:38;17.80;53.70
58153;DHT22;43967;51.634;5.566;2024-03-08T01:46:59;17.80;53.00
58153;DHT22;43967;51.634;5.566;2024-03-08T01:52:21;17.70;52.80
58153;DHT22;43967;51.634;5.566;2024-03-08T01:57:42;17.70;52.90
58153;DHT22;43967;51.634;5.566;2024-03-08T02:03:04;17.70;52.80
58153;DHT22;43967;51.634;5.566;2024-03-08T02:08:25;17.70;52.80
58153;DHT22;43967;51.634;5.566;2024-03-08T02:13:47;17.70;52.80
58153;DHT22;43967;51.634;5.566;2024-03-08T02:19:08;17.70;52.80
58153;DHT22;43967;51.634;5.566;2024-03-08T02:24:30;17.60;52.70
58153;DHT22;43967;51.634;5.566;2024-03-08T02:29:54;17.70;52.80
58153;DHT22;43967;51.634;5.566;2024-03-08T02:35:16;17.60;52.70
58153;DHT22;43967;51.634;5.566;2024-03-08T02:40:37;17.60;52.60
58153;DHT22;43967;51.634;5.566;2024-03-08T02:45:58;17.60;52.70
58153;DHT22;43967;51.634;5.566;2024-03-08T02:51:19;17.60;52.70
58153;DHT22;43967;51.634;5.566;2024-03-08T02:56:41;17.60;53.40
58153;DHT22;43967;51.634;5.566;2024-03-08T03:02:02;17.60;52.60
58153;DHT22;43967;51.634;5.566;2024-03-08T03:07:23;17.60;52.70
58153;DHT22;43967;51.634;5.566;2024-03-08T03:12:47;17.60;52.60
58153;DHT22;43967;51.634;5.566;2024-03-08T03:18:09;17.50;52.60
58153;DHT22;43967;51.634;5.566;2024-03-08T03:23:31;17.50;52.50
58153;DHT22;43967;51.634;5.566;2024-03-08T03:28:52;17.50;52.50
58153;DHT22;43967;51.634;5.566;2024-03-08T03:34:15;17.50;52.60
58153;DHT22;43967;51.634;5.566;2024-03-08T03:39:36;17.50;52.50
58153;DHT22;43967;51.634;5.566;2024-03-08T03:44:57;17.50;52.60
58153;DHT22;43967;51.634;5.566;2024-03-08T03:50:20;17.40;52.40
58153;DHT22;43967;51.634;5.566;2024-03-08T03:55:41;17.40;52.50
58153;DHT22;43967;51.634;5.566;2024-03-08T04:01:05;17.40;52.50
58153;DHT22;43967;51.634;5.566;2024-03-08T04:06:26;17.40;52.40
58153;DHT22;43967;51.634;5.566;2024-03-08T04:11:49;17.40;52.50
58153;DHT22;43967;51.634;5.566;2024-03-08T04:17:11;17.40;52.40
58153;DHT22;43967;51.634;5.566;2024-03-08T04:22:32;17.40;52.40
58153;DHT22;43967;51.634;5.566;2024-03-08T04:27:53;17.40;52.40
58153;DHT22;43967;51.634;5.566;2024-03-08T04:33:15;17.40;52.40
58153;DHT22;43967;51.634;5.566;2024-03-08T04:38:36;17.40;52.40
58153;DHT22;43967;51.634;5.566;2024-03-08T04:43:59;17.40;52.30
58153;DHT22;43967;51.634;5.566;2024-03-08T04:49:20;17.40;52.20
58153;DHT22;43967;51.634;5.566;2024-03-08T04:54:43;17.40;52.30
58153;DHT22;43967;51.634;5.566;2024-03-08T05:00:05;17.40;52.20
58153;DHT22;43967;51.634;5.566;2024-03-08T05:05:27;17.40;52.30
58153;DHT22;43967;51.634;5.566;2024-03-08T05:10:48;17.40;52.20
58153;DHT22;43967;51.634;5.566;2024-03-08T05:16:10;17.40;52.30
58153;DHT22;43967;51.634;5.566;2024-03-08T05:21:32;17.40;52.20
58153;DHT22;43967;51.634;5.566;2024-03-08T05:26:53;17.40;52.40
58153;DHT22;43967;51.634;5.566;2024-03-08T05:32:14;17.40;52.30
58153;DHT22;43967;51.634;5.566;2024-03-08T05:37:35;17.40;52.20
58153;DHT22;43967;51.634;5.566;2024-03-08T05:42:57;17.40;52.30
58153;DHT22;43967;51.634;5.566;2024-03-08T05:48:19;17.40;52.10
58153;DHT22;43967;51.634;5.566;2024-03-08T05:53:41;17.40;52.20
58153;DHT22;43967;51.634;5.566;2024-03-08T05:59:03;17.40;52.00
58153;DHT22;43967;51.634;5.566;2024-03-08T06:04:24;17.40;52.00
58153;DHT22;43967;51.634;5.566;2024-03-08T06:09:45;17.40;52.00
58153;DHT22;43967;51.634;5.566;2024-03-08T06:15:08;17.40;52.00
58153;DHT22;43967;51.634;5.566;2024-03-08T06:20:29;17.40;51.80
58153;DHT22;43967;51.634;5.566;2024-03-08T06:25:50;17.40;51.60
58153;DHT22;43967;51.634;5.566;2024-03-08T06:31:12;17.30;51.40
58153;DHT22;43967;51.634;5.566;2024-03-08T06:36:33;17.30;51.20
58153;DHT22;43967;51.634;5.566;2024-03-08T06:41:57;17.30;51.20
58153;DHT22;43967;51.634;5.566;2024-03-08T06:47:18;17.30;51.10
58153;DHT22;43967;51.634;5.566;2024-03-08T06:52:39;17.30;51.10
58153;DHT22;43967;51.634;5.566;2024-03-08T06:58:03;17.30;51.20
58153;DHT22;43967;51.634;5.566;2024-03-08T07:03:25;17.30;51.40
58153;DHT22;43967;51.634;5.566;2024-03-08T07:08:46;17.30;51.50
58153;DHT22;43967;51.634;5.566;2024-03-08T07:14:07;17.30;51.60
58153;DHT22;43967;51.634;5.566;2024-03-08T07:19:29;17.30;51.60
58153;DHT22;43967;51.634;5.566;2024-03-08T07:24:50;17.30;51.70
58153;DHT22;43967;51.634;5.566;2024-03-08T07:30:11;17.40;51.80
58153;DHT22;43967;51.634;5.566;2024-03-08T07:35:33;17.30;51.90
58153;DHT22;43967;51.634;5.566;2024-03-08T07:40:54;17.30;52.10
58153;DHT22;43967;51.634;5.566;2024-03-08T07:46:16;17.40;52.20
58153;DHT22;43967;51.634;5.566;2024-03-08T07:51:40;17.40;52.20
58153;DHT22;43967;51.634;5.566;2024-03-08T07:57:01;17.40;52.20
58153;DHT22;43967;51.634;5.566;2024-03-08T08:02:22;17.40;52.40
58153;DHT22;43967;51.634;5.566;2024-03-08T08:07:47;17.40;52.50
58153;DHT22;43967;51.634;5.566;2024-03-08T08:13:08;17.40;52.50
58153;DHT22;43967;51.634;5.566;2024-03-08T08:18:29;17.40;52.60
58153;DHT22;43967;51.634;5.566;2024-03-08T08:23:51;17.40;52.60
58153;DHT22;43967;51.634;5.566;2024-03-08T08:29:12;17.40;52.90
58153;DHT22;43967;51.634;5.566;2024-03-08T08:34:33;17.50;53.60
58153;DHT22;43967;51.634;5.566;2024-03-08T08:39:55;17.50;54.00
58153;DHT22;43967;51.634;5.566;2024-03-08T08:45:16;17.60;54.30
58153;DHT22;43967;51.634;5.566;2024-03-08T08:50:37;17.60;55.30
58153;DHT22;43967;51.634;5.566;2024-03-08T08:55:59;17.70;54.80
58153;DHT22;43967;51.634;5.566;2024-03-08T09:01:20;17.80;54.80
58153;DHT22;43967;51.634;5.566;2024-03-08T09:06:41;17.80;54.70
58153;DHT22;43967;51.634;5.566;2024-03-08T09:12:03;17.90;54.70
58153;DHT22;43967;51.634;5.566;2024-03-08T09:17:24;18.00;54.70
58153;DHT22;43967;51.634;5.566;2024-03-08T09:22:45;18.10;54.60
58153;DHT22;43967;51.634;5.566;2024-03-08T09:28:07;18.20;54.60
58153;DHT22;43967;51.634;5.566;2024-03-08T09:33:28;18.30;54.70
58153;DHT22;43967;51.634;5.566;2024-03-08T09:38:49;18.30;54.70
58153;DHT22;43967;51.634;5.566;2024-03-08T09:44:11;18.40;54.60
58153;DHT22;43967;51.634;5.566;2024-03-08T09:49:32;18.40;54.60
58153;DHT22;43967;51.634;5.566;2024-03-08T09:54:53;18.40;54.70
58153;DHT22;43967;51.634;5.566;2024-03-08T10:00:14;18.50;54.70
58153;DHT22;43967;51.634;5.566;2024-03-08T10:05:36;18.50;54.70
58153;DHT22;43967;51.634;5.566;2024-03-08T10:10:58;18.60;54.80
58153;DHT22;43967;51.634;5.566;2024-03-08T10:16:19;18.60;54.70
58153;DHT22;43967;51.634;5.566;2024-03-08T10:21:50;18.70;54.80
58153;DHT22;43967;51.634;5.566;2024-03-08T10:27:11;18.70;54.80
58153;DHT22;43967;51.634;5.566;2024-03-08T10:32:32;18.70;54.70
58153;DHT22;43967;51.634;5.566;2024-03-08T10:37:56;18.80;54.90
58153;DHT22;43967;51.634;5.566;2024-03-08T10:43:24;18.80;55.00
58153;DHT22;43967;51.634;5.566;2024-03-08T10:48:49;18.90;55.30
58153;DHT22;43967;51.634;5.566;2024-03-08T10:54:11;18.90;55.50
58153;DHT22;43967;51.634;5.566;2024-03-08T10:59:34;19.00;55.40
58153;DHT22;43967;51.634;5.566;2024-03-08T11:04:55;19.00;55.30
58153;DHT22;43967;51.634;5.566;2024-03-08T11:10:20;19.00;55.30
58153;DHT22;43967;51.634;5.566;2024-03-08T11:15:42;19.10;55.20
58153;DHT22;43967;51.634;5.566;2024-03-08T11:21:04;19.10;55.20
58153;DHT22;43967;51.634;5.566;2024-03-08T11:26:25;19.10;55.10
58153;DHT22;43967;51.634;5.566;2024-03-08T11:31:46;19.10;55.20
58153;DHT22;43967;51.634;5.566;2024-03-08T11:37:12;19.20;55.10
58153;DHT22;43967;51.634;5.566;2024-03-08T11:42:35;19.20;55.10
58153;DHT22;43967;51.634;5.566;2024-03-08T11:47:56;19.20;55.00
58153;DHT22;43967;51.634;5.566;2024-03-08T11:53:18;19.30;55.10
58153;DHT22;43967;51.634;5.566;2024-03-08T11:58:40;19.30;55.10
58153;DHT22;43967;51.634;5.566;2024-03-08T12:04:01;19.30;55.20
58153;DHT22;43967;51.634;5.566;2024-03-08T12:09:22;19.40;55.20
58153;DHT22;43967;51.634;5.566;2024-03-08T12:14:44;19.40;55.10
58153;DHT22;43967;51.634;5.566;2024-03-08T12:20:17;19.40;55.10
58153;DHT22;43967;51.634;5.566;2024-03-08T12:25:38;19.40;54.90
58153;DHT22;43967;51.634;5.566;2024-03-08T12:31:00;19.30;55.00
58153;DHT22;43967;51.634;5.566;2024-03-08T12:36:21;19.30;55.00
58153;DHT22;43967;51.634;5.566;2024-03-08T12:41:43;19.30;55.10
58153;DHT22;43967;51.634;5.566;2024-03-08T12:47:04;19.30;55.10
58153;DHT22;43967;51.634;5.566;2024-03-08T12:52:26;19.30;54.90
58153;DHT22;43967;51.634;5.566;2024-03-08T12:57:47;19.30;54.70
58153;DHT22;43967;51.634;5.566;2024-03-08T13:03:09;19.20;54.60
58153;DHT22;43967;51.634;5.566;2024-03-08T13:08:30;19.30;54.80
58153;DHT22;43967;51.634;5.566;2024-03-08T13:13:51;19.30;55.00
58153;DHT22;43967;51.634;5.566;2024-03-08T13:19:13;19.30;55.10
58153;DHT22;43967;51.634;5.566;2024-03-08T13:24:34;19.30;55.30
58153;DHT22;43967;51.634;5.566;2024-03-08T13:29:55;19.30;55.60
58153;DHT22;43967;51.634;5.566;2024-03-08T13:35:17;19.30;55.70
58153;DHT22;43967;51.634;5.566;2024-03-08T13:40:38;19.30;55.60
58153;DHT22;43967;51.634;5.566;2024-03-08T13:45:59;19.20;55.60
58153;DHT22;43967;51.634;5.566;2024-03-08T13:51:20;19.30;55.60
58153;DHT22;43967;51.634;5.566;2024-03-08T13:56:42;19.30;55.60
58153;DHT22;43967;51.634;5.566;2024-03-08T14:02:03;19.30;55.50
58153;DHT22;43967;51.634;5.566;2024-03-08T14:07:24;19.20;55.50
58153;DHT22;43967;51.634;5.566;2024-03-08T14:12:45;19.30;55.50
58153;DHT22;43967;51.634;5.566;2024-03-08T14:18:07;19.30;55.50
58153;DHT22;43967;51.634;5.566;2024-03-08T14:23:28;19.30;55.60
58153;DHT22;43967;51.634;5.566;2024-03-08T14:28:49;19.30;55.70
58153;DHT22;43967;51.634;5.566;2024-03-08T14:34:11;19.30;55.80
58153;DHT22;43967;51.634;5.566;2024-03-08T14:39:32;19.30;55.80
58153;DHT22;43967;51.634;5.566;2024-03-08T14:44:53;19.20;51.20
58153;DHT22;43967;51.634;5.566;2024-03-08T14:50:18;19.20;53.70
58153;DHT22;43967;51.634;5.566;2024-03-08T14:55:40;19.30;54.10
58153;DHT22;43967;51.634;5.566;2024-03-08T15:01:01;19.20;54.00
58153;DHT22;43967;51.634;5.566;2024-03-08T15:06:22;19.30;54.10
58153;DHT22;43967;51.634;5.566;2024-03-08T15:11:47;19.30;54.00
58153;DHT22;43967;51.634;5.566;2024-03-08T15:17:08;19.30;54.20
58153;DHT22;43967;51.634;5.566;2024-03-08T15:22:30;19.30;54.10
58153;DHT22;43967;51.634;5.566;2024-03-08T15:27:55;19.30;54.00
58153;DHT22;43967;51.634;5.566;2024-03-08T15:33:17;19.30;53.90
58153;DHT22;43967;51.634;5.566;2024-03-08T15:38:38;19.20;53.60
58153;DHT22;43967;51.634;5.566;2024-03-08T15:43:59;19.20;53.60
58153;DHT22;43967;51.634;5.566;2024-03-08T15:49:20;19.20;53.60
58153;DHT22;43967;51.634;5.566;2024-03-08T15:54:42;19.20;53.40
58153;DHT22;43967;51.634;5.566;2024-03-08T16:00:03;19.20;53.30
58153;DHT22;43967;51.634;5.566;2024-03-08T16:05:24;19.20;53.30
58153;DHT22;43967;51.634;5.566;2024-03-08T16:10:47;19.20;53.20
58153;DHT22;43967;51.634;5.566;2024-03-08T16:16:09;19.20;53.20
58153;DHT22;43967;51.634;5.566;2024-03-08T16:21:30;19.20;53.10
58153;DHT22;43967;51.634;5.566;2024-03-08T16:26:51;19.20;53.10
58153;DHT22;43967;51.634;5.566;2024-03-08T16:32:13;19.20;52.80
58153;DHT22;43967;51.634;5.566;2024-03-08T16:37:34;19.20;52.70
58153;DHT22;43967;51.634;5.566;2024-03-08T16:42:55;19.20;52.60
58153;DHT22;43967;51.634;5.566;2024-03-08T16:48:17;19.20;52.80
58153;DHT22;43967;51.634;5.566;2024-03-08T16:53:39;19.20;53.30
58153;DHT22;43967;51.634;5.566;2024-03-08T16:59:00;19.30;53.80
58153;DHT22;43967;51.634;5.566;2024-03-08T17:04:21;19.20;53.80
58153;DHT22;43967;51.634;5.566;2024-03-08T17:09:42;19.30;53.40
58153;DHT22;43967;51.634;5.566;2024-03-08T17:15:04;19.30;53.20
58153;DHT22;43967;51.634;5.566;2024-03-08T17:20:26;19.30;53.10
58153;DHT22;43967;51.634;5.566;2024-03-08T17:25:48;19.30;54.50
58153;DHT22;43967;51.634;5.566;2024-03-08T17:31:10;19.30;54.90
58153;DHT22;43967;51.634;5.566;2024-03-08T17:36:31;19.30;56.30
58153;DHT22;43967;51.634;5.566;2024-03-08T17:41:53;19.20;58.00
58153;DHT22;43967;51.634;5.566;2024-03-08T17:47:14;19.30;58.80
58153;DHT22;43967;51.634;5.566;2024-03-08T17:52:36;19.30;59.30
58153;DHT22;43967;51.634;5.566;2024-03-08T17:57:57;19.30;59.40
58153;DHT22;43967;51.634;5.566;2024-03-08T18:03:19;19.30;59.80
58153;DHT22;43967;51.634;5.566;2024-03-08T18:08:41;19.30;59.40
58153;DHT22;43967;51.634;5.566;2024-03-08T18:14:03;19.30;58.90
58153;DHT22;43967;51.634;5.566;2024-03-08T18:19:24;19.30;58.40
58153;DHT22;43967;51.634;5.566;2024-03-08T18:24:45;19.30;57.90
58153;DHT22;43967;51.634;5.566;2024-03-08T18:30:07;19.30;57.40
58153;DHT22;43967;51.634;5.566;2024-03-08T18:35:28;19.30;57.20
58153;DHT22;43967;51.634;5.566;2024-03-08T18:40:49;19.30;56.80
58153;DHT22;43967;51.634;5.566;2024-03-08T18:46:11;19.20;56.60
58153;DHT22;43967;51.634;5.566;2024-03-08T18:51:33;19.20;56.30
58153;DHT22;43967;51.634;5.566;2024-03-08T18:56:54;19.30;56.00
58153;DHT22;43967;51.634;5.566;2024-03-08T19:02:17;19.20;55.80
58153;DHT22;43967;51.634;5.566;2024-03-08T19:07:39;19.20;55.50
58153;DHT22;43967;51.634;5.566;2024-03-08T19:13:02;19.20;55.30
58153;DHT22;43967;51.634;5.566;2024-03-08T19:18:23;19.20;55.30
58153;DHT22;43967;51.634;5.566;2024-03-08T19:23:44;19.20;55.10
58153;DHT22;43967;51.634;5.566;2024-03-08T19:29:05;19.20;55.00
58153;DHT22;43967;51.634;5.566;2024-03-08T19:34:27;19.10;54.80
58153;DHT22;43967;51.634;5.566;2024-03-08T19:39:48;19.20;54.70
58153;DHT22;43967;51.634;5.566;2024-03-08T19:45:09;19.10;54.60
58153;DHT22;43967;51.634;5.566;2024-03-08T19:50:32;19.10;54.40
58153;DHT22;43967;51.634;5.566;2024-03-08T19:55:54;19.10;54.30
58153;DHT22;43967;51.634;5.566;2024-03-08T20:01:15;19.10;54.20
58153;DHT22;43967;51.634;5.566;2024-03-08T20:06:37;19.10;54.10
58153;DHT22;43967;51.634;5.566;2024-03-08T20:11:58;19.10;54.10
58153;DHT22;43967;51.634;5.566;2024-03-08T20:17:19;19.10;53.90
58153;DHT22;43967;51.634;5.566;2024-03-08T20:22:44;19.10;53.90
58153;DHT22;43967;51.634;5.566;2024-03-08T20:28:07;19.10;53.80
58153;DHT22;43967;51.634;5.566;2024-03-08T20:33:28;19.00;53.70
58153;DHT22;43967;51.634;5.566;2024-03-08T20:38:49;19.10;53.70
58153;DHT22;43967;51.634;5.566;2024-03-08T20:44:11;19.00;53.60
58153;DHT22;43967;51.634;5.566;2024-03-08T20:49:32;19.00;53.50
58153;DHT22;43967;51.634;5.566;2024-03-08T20:54:55;19.00;53.40
58153;DHT22;43967;51.634;5.566;2024-03-08T21:00:18;19.00;53.40
58153;DHT22;43967;51.634;5.566;2024-03-08T21:05:41;19.00;53.40
58153;DHT22;43967;51.634;5.566;2024-03-08T21:11:03;19.00;53.20
58153;DHT22;43967;51.634;5.566;2024-03-08T21:16:24;19.00;53.90
58153;DHT22;43967;51.634;5.566;2024-03-08T21:21:45;19.00;53.20
58153;DHT22;43967;51.634;5.566;2024-03-08T21:27:07;18.90;53.20
58153;DHT22;43967;51.634;5.566;2024-03-08T21:32:28;18.90;53.10
58153;DHT22;43967;51.634;5.566;2024-03-08T21:37:50;18.90;53.10
58153;DHT22;43967;51.634;5.566;2024-03-08T21:43:11;18.90;53.00
58153;DHT22;43967;51.634;5.566;2024-03-08T21:48:33;18.90;53.00
58153;DHT22;43967;51.634;5.566;2024-03-08T21:53:54;18.90;53.00
58153;DHT22;43967;51.634;5.566;2024-03-08T21:59:15;18.80;53.00
58153;DHT22;43967;51.634;5.566;2024-03-08T22:04:38;18.90;52.90
58153;DHT22;43967;51.634;5.566;2024-03-08T22:09:59;18.80;52.70
58153;DHT22;43967;51.634;5.566;2024-03-08T22:15:21;18.80;52.70
58153;DHT22;43967;51.634;5.566;2024-03-08T22:20:43;18.80;52.60
58153;DHT22;43967;51.634;5.566;2024-03-08T22:26:04;18.80;52.60
58153;DHT22;43967;51.634;5.566;2024-03-08T22:31:26;18.80;52.60
58153;DHT22;43967;51.634;5.566;2024-03-08T22:36:47;18.80;52.50
58153;DHT22;43967;51.634;5.566;2024-03-08T22:42:08;18.70;52.40
58153;DHT22;43967;51.634;5.566;2024-03-08T22:47:29;18.70;52.50
58153;DHT22;43967;51.634;5.566;2024-03-08T22:52:51;18.70;52.70
58153;DHT22;43967;51.634;5.566;2024-03-08T22:58:12;18.60;52.50
58153;DHT22;43967;51.634;5.566;2024-03-08T23:03:33;18.70;53.10
58153;DHT22;43967;51.634;5.566;2024-03-08T23:08:55;18.70;52.40
58153;DHT22;43967;51.634;5.566;2024-03-08T23:14:16;18.70;52.30
58153;DHT22;43967;51.634;5.566;2024-03-08T23:19:37;18.60;52.90
58153;DHT22;43967;51.634;5.566;2024-03-08T23:24:58;18.60;52.30
58153;DHT22;43967;51.634;5.566;2024-03-08T23:30:21;18.60;52.20
58153;DHT22;43967;51.634;5.566;2024-03-08T23:35:42;18.60;52.20
58153;DHT22;43967;51.634;5.566;2024-03-08T23:41:04;18.60;52.10
58153;DHT22;43967;51.634;5.566;2024-03-08T23:46:25;18.60;52.10
58153;DHT22;43967;51.634;5.566;2024-03-08T23:51:46;18.60;52.10
58153;DHT22;43967;51.634;5.566;2024-03-08T23:57:08;18.60;52.20
